createdAt,value
2018-03-24T00:01:07.639Z,65.60
2018-03-24T00:03:35.094Z,65.60
2018-03-24T00:06:02.563Z,65.50
2018-03-24T00:08:30.020Z,65.50
2018-03-24T00:10:57.500Z,65.50
2018-03-24T00:13:24.960Z,65.50
2018-03-24T00:15:52.440Z,65.30
2018-03-24T00:18:19.901Z,65.30
2018-03-24T00:20:47.376Z,65.40
2018-03-24T00:23:14.839Z,65.40
2018-03-24T00:25:42.323Z,65.50
2018-03-24T00:28:09.779Z,65.50
2018-03-24T00:30:37.263Z,65.50
2018-03-24T00:33:04.716Z,65.40
2018-03-24T00:35:32.180Z,65.40
2018-03-24T00:37:59.653Z,65.40
2018-03-24T00:40:27.114Z,65.50
2018-03-24T00:42:54.581Z,65.30
2018-03-24T00:45:22.049Z,65.30
2018-03-24T00:47:49.534Z,65.30
2018-03-24T00:50:17.027Z,65.40
2018-03-24T00:52:44.496Z,65.20
2018-03-24T00:55:11.956Z,65.10
2018-03-24T00:57:39.415Z,66.00
2018-03-24T01:00:06.875Z,65.50
2018-03-24T01:02:35.131Z,65.80
2018-03-24T01:05:04.101Z,65.70
2018-03-24T01:07:31.572Z,65.60
2018-03-24T01:09:59.035Z,65.60
2018-03-24T01:12:26.525Z,65.80
2018-03-24T01:14:53.983Z,65.90
2018-03-24T01:17:21.471Z,65.90
2018-03-24T01:19:48.939Z,65.90
2018-03-24T01:22:16.411Z,65.90
2018-03-24T01:24:43.882Z,66.00
2018-03-24T01:27:11.368Z,66.10
2018-03-24T01:29:39.615Z,66.20
2018-03-24T01:32:07.076Z,66.10
2018-03-24T01:34:34.557Z,66.10
2018-03-24T01:37:02.019Z,66.10
2018-03-24T01:39:29.509Z,66.10
2018-03-24T01:41:56.967Z,66.00
2018-03-24T01:44:24.446Z,66.00
2018-03-24T01:46:51.900Z,66.10
2018-03-24T01:49:19.399Z,66.20
2018-03-24T01:51:47.636Z,66.20
2018-03-24T01:54:15.110Z,66.20
2018-03-24T01:56:42.584Z,66.20
2018-03-24T01:59:10.053Z,66.20
2018-03-24T02:01:37.513Z,66.20
2018-03-24T02:04:04.971Z,66.10
2018-03-24T02:06:32.458Z,66.70
2018-03-24T02:08:59.921Z,66.10
2018-03-24T02:11:27.410Z,66.10
2018-03-24T02:13:55.688Z,66.10
2018-03-24T02:16:23.163Z,66.10
2018-03-24T02:18:50.628Z,66.10
2018-03-24T02:21:28.004Z,66.10
2018-03-24T02:23:56.288Z,66.10
2018-03-24T02:26:23.756Z,66.00
2018-03-24T02:28:51.211Z,66.00
2018-03-24T02:31:18.691Z,66.20
2018-03-24T02:33:46.163Z,66.20
2018-03-24T02:36:13.642Z,66.20
2018-03-24T02:38:41.107Z,66.20
2018-03-24T02:41:08.570Z,66.20
2018-03-24T02:43:36.817Z,66.20
2018-03-24T02:46:04.272Z,66.20
2018-03-24T02:48:31.755Z,66.20
2018-03-24T02:50:59.223Z,66.20
2018-03-24T02:53:26.692Z,66.20
2018-03-24T02:55:54.175Z,66.20
2018-03-24T02:58:21.701Z,66.20
2018-03-24T03:00:49.955Z,66.20
2018-03-24T03:03:17.444Z,66.90
2018-03-24T03:05:44.916Z,66.40
2018-03-24T03:08:12.401Z,66.40
2018-03-24T03:10:39.864Z,66.30
2018-03-24T03:13:07.394Z,66.20
2018-03-24T03:15:35.570Z,66.60
2018-03-24T03:18:03.052Z,66.40
2018-03-24T03:20:30.519Z,66.50
2018-03-24T03:22:58.002Z,66.40
2018-03-24T03:25:25.451Z,66.40
2018-03-24T03:27:52.991Z,66.50
2018-03-24T03:30:26.209Z,66.60
2018-03-24T03:32:53.688Z,66.70
2018-03-24T03:35:21.152Z,66.60
2018-03-24T03:37:48.624Z,66.50
2018-03-24T03:40:16.100Z,66.60
2018-03-24T03:42:43.575Z,66.70
2018-03-24T03:45:11.032Z,66.70
2018-03-24T03:47:38.488Z,66.70
2018-03-24T03:50:05.956Z,66.70
2018-03-24T03:52:34.197Z,66.80
2018-03-24T03:55:01.671Z,66.80
2018-03-24T03:57:29.147Z,66.70
2018-03-24T03:59:56.616Z,66.70
2018-03-24T04:02:24.079Z,66.70
2018-03-24T04:04:51.560Z,66.70
2018-03-24T04:07:19.019Z,66.80
2018-03-24T04:09:46.496Z,66.70
2018-03-24T04:12:13.956Z,66.60
2018-03-24T04:14:41.437Z,66.70
2018-03-24T04:17:08.901Z,66.70
2018-03-24T04:19:37.139Z,66.70
2018-03-24T04:22:04.601Z,66.70
2018-03-24T04:24:32.108Z,66.80
2018-03-24T04:26:59.573Z,66.70
2018-03-24T04:29:27.057Z,66.70
2018-03-24T04:31:54.528Z,66.60
2018-03-24T04:34:21.988Z,66.60
2018-03-24T04:36:49.465Z,66.60
2018-03-24T04:39:16.936Z,66.70
2018-03-24T04:41:44.408Z,66.70
2018-03-24T04:44:12.628Z,66.50
2018-03-24T04:46:40.091Z,66.50
2018-03-24T04:49:07.571Z,66.50
2018-03-24T04:51:35.049Z,66.50
2018-03-24T04:54:02.540Z,66.50
2018-03-24T04:56:30.015Z,66.60
2018-03-24T04:58:57.505Z,66.60
2018-03-24T05:01:25.774Z,66.80
2018-03-24T05:03:53.242Z,66.60
2018-03-24T05:06:20.740Z,66.60
2018-03-24T05:08:48.216Z,66.70
2018-03-24T05:11:15.706Z,66.60
2018-03-24T05:13:43.180Z,66.60
2018-03-24T05:16:11.412Z,66.70
2018-03-24T05:18:38.896Z,66.60
2018-03-24T05:21:06.412Z,66.70
2018-03-24T05:23:33.878Z,66.70
2018-03-24T05:26:01.374Z,66.70
2018-03-24T05:28:29.611Z,66.70
2018-03-24T05:30:57.074Z,66.70
2018-03-24T05:33:24.533Z,66.70
2018-03-24T05:35:52.018Z,66.70
2018-03-24T05:38:19.498Z,66.70
2018-03-24T05:40:47.191Z,66.70
2018-03-24T05:43:14.660Z,66.60
2018-03-24T05:45:42.124Z,66.70
2018-03-24T05:48:09.588Z,66.60
2018-03-24T05:50:37.054Z,66.60
2018-03-24T05:53:04.544Z,66.60
2018-03-24T05:55:32.000Z,66.70
2018-03-24T05:57:59.483Z,66.60
2018-03-24T06:00:26.951Z,66.60
2018-03-24T06:02:54.433Z,66.70
2018-03-24T06:05:21.943Z,66.70
2018-03-24T06:07:49.384Z,66.70
2018-03-24T06:10:17.602Z,66.70
2018-03-24T06:12:45.077Z,66.60
2018-03-24T06:15:12.532Z,66.60
2018-03-24T06:17:39.996Z,66.50
2018-03-24T06:20:07.455Z,66.60
2018-03-24T06:22:34.939Z,66.30
2018-03-24T06:25:02.399Z,66.20
2018-03-24T06:27:29.877Z,66.40
2018-03-24T06:29:57.343Z,66.60
2018-03-24T06:32:24.832Z,66.60
2018-03-24T06:34:52.304Z,66.80
2018-03-24T06:37:20.679Z,66.70
2018-03-24T06:39:48.143Z,66.60
2018-03-24T06:42:16.375Z,66.60
2018-03-24T06:44:43.858Z,66.60
2018-03-24T06:47:11.324Z,66.70
2018-03-24T06:49:38.796Z,66.70
2018-03-24T06:52:06.253Z,66.70
2018-03-24T06:54:33.731Z,66.70
2018-03-24T06:57:01.196Z,66.70
2018-03-24T06:59:28.673Z,66.50
2018-03-24T07:01:56.138Z,66.20
2018-03-24T07:04:23.611Z,66.40
2018-03-24T07:06:51.073Z,66.30
2018-03-24T07:09:18.555Z,66.10
2018-03-24T07:11:46.804Z,66.10
2018-03-24T07:14:14.283Z,66.10
2018-03-24T07:16:41.754Z,66.00
2018-03-24T07:19:09.240Z,65.90
2018-03-24T07:21:36.738Z,65.80
2018-03-24T07:24:04.216Z,65.80
2018-03-24T07:26:32.440Z,65.50
2018-03-24T07:28:59.951Z,65.50
2018-03-24T07:31:27.404Z,65.30
2018-03-24T07:33:54.896Z,65.30
2018-03-24T07:36:22.347Z,65.30
2018-03-24T07:38:49.803Z,65.20
2018-03-24T07:41:17.274Z,64.80
2018-03-24T07:43:44.732Z,64.70
2018-03-24T07:46:12.208Z,64.70
2018-03-24T07:48:39.673Z,64.70
2018-03-24T07:51:07.151Z,64.60
2018-03-24T07:53:35.389Z,64.40
2018-03-24T07:56:02.854Z,64.30
2018-03-24T07:58:30.349Z,64.20
2018-03-24T08:00:57.812Z,64.00
2018-03-24T08:03:25.267Z,63.70
2018-03-24T08:05:52.731Z,63.70
2018-03-24T08:08:20.187Z,63.60
2018-03-24T08:10:47.660Z,63.30
2018-03-24T08:13:15.150Z,63.20
2018-03-24T08:15:42.639Z,63.20
2018-03-24T08:18:10.886Z,63.10
2018-03-24T08:20:38.372Z,63.00
2018-03-24T08:23:05.859Z,63.00
2018-03-24T08:25:33.316Z,62.90
2018-03-24T08:28:00.789Z,62.70
2018-03-24T08:30:28.306Z,62.60
2018-03-24T08:32:55.736Z,62.50
2018-03-24T08:37:57.156Z,62.20
2018-03-24T08:40:24.611Z,62.00
2018-03-24T08:42:52.090Z,62.00
2018-03-24T08:45:19.551Z,62.00
2018-03-24T08:47:47.028Z,61.80
2018-03-24T08:50:14.503Z,61.40
2018-03-24T08:52:41.975Z,61.40
2018-03-24T08:55:09.467Z,61.50
2018-03-24T08:57:36.944Z,61.40
2018-03-24T09:00:04.405Z,61.40
2018-03-24T09:02:31.875Z,61.10
2018-03-24T09:04:59.511Z,60.90
2018-03-24T09:07:27.086Z,60.80
2018-03-24T09:09:54.513Z,60.70
2018-03-24T09:12:21.980Z,60.40
2018-03-24T09:14:49.488Z,60.20
2018-03-24T09:17:16.970Z,60.00
2018-03-24T09:19:44.447Z,59.90
2018-03-24T09:22:11.982Z,59.80
2018-03-24T09:24:39.456Z,59.60
2018-03-24T09:27:06.919Z,59.40
2018-03-24T09:29:34.386Z,59.20
2018-03-24T09:32:01.935Z,59.10
2018-03-24T09:34:29.488Z,58.90
2018-03-24T09:36:56.963Z,58.50
2018-03-24T09:39:24.440Z,58.20
2018-03-24T09:41:51.896Z,58.00
2018-03-24T09:44:19.388Z,57.70
2018-03-24T09:46:46.885Z,57.50
2018-03-24T09:49:14.365Z,57.30
2018-03-24T09:51:41.828Z,57.20
2018-03-24T09:54:09.313Z,56.80
2018-03-24T09:56:36.783Z,56.30
2018-03-24T09:59:04.249Z,55.90
2018-03-24T10:01:31.763Z,55.40
2018-03-24T10:03:59.244Z,55.00
2018-03-24T10:06:26.707Z,54.50
2018-03-24T10:08:54.179Z,54.10
2018-03-24T10:11:21.635Z,53.70
2018-03-24T10:13:49.097Z,53.50
2018-03-24T10:16:16.571Z,53.10
2018-03-24T10:18:44.038Z,52.70
2018-03-24T10:21:21.442Z,51.40
2018-03-24T10:23:50.550Z,51.10
2018-03-24T10:26:18.192Z,50.80
2018-03-24T10:28:45.668Z,50.60
2018-03-24T10:31:13.198Z,50.50
2018-03-24T10:33:46.263Z,50.40
2018-03-24T10:36:13.745Z,50.10
2018-03-24T10:38:41.261Z,49.60
2018-03-24T10:41:08.735Z,49.20
2018-03-24T10:43:39.119Z,48.80
2018-03-24T10:46:06.624Z,48.60
2018-03-24T10:48:34.071Z,48.20
2018-03-24T10:51:01.570Z,47.90
2018-03-24T10:53:29.041Z,47.60
2018-03-24T10:55:57.289Z,47.40
2018-03-24T10:58:24.747Z,47.10
2018-03-24T11:00:57.858Z,46.90
2018-03-24T11:03:25.355Z,46.70
2018-03-24T11:05:52.817Z,46.40
2018-03-24T11:08:20.291Z,46.00
2018-03-24T11:10:47.819Z,45.40
2018-03-24T11:13:15.289Z,44.90
2018-03-24T11:15:42.747Z,44.50
2018-03-24T11:18:10.380Z,44.00
2018-03-24T11:20:38.601Z,43.00
2018-03-24T11:23:06.066Z,42.90
2018-03-24T11:25:33.534Z,42.60
2018-03-24T11:28:01.002Z,42.20
2018-03-24T11:30:28.455Z,41.80
2018-03-24T11:32:55.965Z,41.40
2018-03-24T11:35:23.432Z,41.20
2018-03-24T11:37:50.924Z,40.90
2018-03-24T11:40:18.388Z,40.50
2018-03-24T11:42:45.867Z,40.50
2018-03-24T11:45:14.112Z,40.50
2018-03-24T11:47:41.590Z,40.40
2018-03-24T11:50:09.061Z,40.50
2018-03-24T11:52:36.551Z,40.30
2018-03-24T11:55:04.013Z,40.30
2018-03-24T11:57:31.472Z,40.30
2018-03-24T12:00:04.673Z,40.00
2018-03-24T12:02:32.131Z,40.00
2018-03-24T12:04:59.611Z,40.00
2018-03-24T12:07:27.079Z,39.80
2018-03-24T12:09:54.562Z,39.80
2018-03-24T12:12:22.032Z,39.80
2018-03-24T12:14:49.543Z,39.80
2018-03-24T12:17:17.008Z,39.80
2018-03-24T12:19:45.253Z,39.90
2018-03-24T12:22:12.760Z,39.80
2018-03-24T12:24:40.216Z,40.40
2018-03-24T12:27:07.692Z,39.80
2018-03-24T12:29:35.171Z,39.80
2018-03-24T12:32:02.654Z,40.00
2018-03-24T12:34:30.131Z,40.00
2018-03-24T12:36:58.376Z,40.10
2018-03-24T12:39:25.852Z,40.10
2018-03-24T12:41:53.341Z,40.00
2018-03-24T12:44:20.822Z,40.20
2018-03-24T12:46:48.295Z,40.30
2018-03-24T12:49:15.751Z,40.40
2018-03-24T12:51:43.241Z,40.60
2018-03-24T12:54:11.468Z,40.40
2018-03-24T12:56:38.936Z,40.40
2018-03-24T12:59:06.399Z,40.40
2018-03-24T13:01:34.647Z,40.20
2018-03-24T13:04:02.120Z,40.10
2018-03-24T13:06:29.591Z,40.00
2018-03-24T13:08:57.072Z,40.00
2018-03-24T13:11:24.559Z,39.90
2018-03-24T13:13:52.169Z,39.80
2018-03-24T13:16:19.657Z,39.80
2018-03-24T13:18:47.892Z,39.90
2018-03-24T13:21:15.359Z,39.90
2018-03-24T13:23:42.824Z,39.70
2018-03-24T13:26:10.312Z,39.40
2018-03-24T13:28:37.792Z,39.30
2018-03-24T13:31:05.267Z,39.40
2018-03-24T13:33:32.744Z,39.10
2018-03-24T13:36:00.227Z,39.00
2018-03-24T13:38:28.456Z,38.90
2018-03-24T13:40:55.936Z,38.80
2018-03-24T13:43:23.399Z,39.00
2018-03-24T13:45:50.861Z,39.00
2018-03-24T13:48:18.335Z,39.20
2018-03-24T13:50:45.824Z,39.30
2018-03-24T13:53:14.119Z,39.40
2018-03-24T13:55:41.608Z,39.40
2018-03-24T13:58:09.080Z,39.40
2018-03-24T14:00:36.554Z,39.40
2018-03-24T14:03:04.034Z,39.30
2018-03-24T14:05:31.515Z,39.30
2018-03-24T14:07:58.996Z,39.20
2018-03-24T14:10:26.469Z,39.10
2018-03-24T14:12:54.704Z,38.90
2018-03-24T14:15:22.178Z,38.90
2018-03-24T14:17:49.639Z,39.00
2018-03-24T14:20:17.152Z,38.80
2018-03-24T14:22:44.632Z,38.50
2018-03-24T14:25:12.088Z,38.40
2018-03-24T14:27:39.563Z,38.20
2018-03-24T14:30:07.028Z,38.20
2018-03-24T14:32:34.523Z,38.30
2018-03-24T14:35:01.999Z,38.40
2018-03-24T14:37:29.499Z,38.30
2018-03-24T14:39:56.965Z,38.30
2018-03-24T14:42:24.423Z,38.30
2018-03-24T14:44:51.907Z,38.10
2018-03-24T14:47:19.372Z,37.70
2018-03-24T14:49:46.864Z,37.20
2018-03-24T14:52:14.319Z,36.90
2018-03-24T14:54:41.783Z,36.70
2018-03-24T14:57:09.257Z,36.50
2018-03-24T14:59:36.724Z,36.20
2018-03-24T15:02:04.192Z,36.00
2018-03-24T15:04:32.443Z,35.80
2018-03-24T15:06:59.904Z,35.80
2018-03-24T15:09:27.372Z,35.90
2018-03-24T15:11:54.859Z,35.90
2018-03-24T15:14:22.336Z,35.80
2018-03-24T15:16:49.813Z,36.20
2018-03-24T15:19:17.278Z,35.50
2018-03-24T15:21:44.760Z,35.30
2018-03-24T15:24:13.007Z,35.10
2018-03-24T15:26:40.472Z,35.10
2018-03-24T15:29:19.700Z,35.00
2018-03-24T15:31:59.044Z,35.10
2018-03-24T15:34:38.384Z,35.20
2018-03-24T15:37:06.632Z,35.70
2018-03-24T15:39:34.100Z,35.30
2018-03-24T15:42:01.566Z,35.30
2018-03-24T15:44:29.036Z,35.40
2018-03-24T15:46:57.277Z,35.60
2018-03-24T15:49:24.764Z,35.60
2018-03-24T15:51:52.228Z,35.50
2018-03-24T15:54:19.743Z,35.60
2018-03-24T15:56:47.184Z,35.70
2018-03-24T15:59:14.644Z,35.80
2018-03-24T16:01:42.140Z,35.90
2018-03-24T16:04:09.605Z,36.00
2018-03-24T16:06:37.078Z,36.10
2018-03-24T16:09:05.315Z,36.30
2018-03-24T16:11:32.799Z,36.20
2018-03-24T16:14:00.281Z,36.50
2018-03-24T16:16:27.768Z,36.70
2018-03-24T16:18:55.249Z,36.70
2018-03-24T16:21:22.785Z,36.60
2018-03-24T16:23:50.250Z,36.80
2018-03-24T16:26:17.736Z,36.90
2018-03-24T16:28:46.000Z,37.10
2018-03-24T16:31:13.480Z,37.10
2018-03-24T16:33:40.954Z,37.20
2018-03-24T16:36:08.452Z,37.30
2018-03-24T16:38:35.925Z,37.30
2018-03-24T16:41:03.388Z,37.40
2018-03-24T16:43:30.867Z,37.50
2018-03-24T16:45:59.099Z,37.70
2018-03-24T16:48:26.580Z,37.70
2018-03-24T16:50:54.066Z,37.80
2018-03-24T16:53:22.328Z,38.00
2018-03-24T16:55:49.830Z,38.00
2018-03-24T16:58:17.339Z,38.10
2018-03-24T17:00:44.811Z,38.20
2018-03-24T17:03:13.048Z,38.20
2018-03-24T17:05:40.527Z,38.20
2018-03-24T17:08:07.999Z,38.30
2018-03-24T17:10:35.474Z,38.40
2018-03-24T17:13:02.956Z,38.50
2018-03-24T17:15:30.451Z,38.60
2018-03-24T17:17:57.928Z,38.70
2018-03-24T17:20:25.418Z,38.80
2018-03-24T17:22:52.899Z,38.80
2018-03-24T17:25:20.376Z,39.60
2018-03-24T17:27:47.848Z,39.20
2018-03-24T17:30:16.107Z,39.30
2018-03-24T17:32:43.575Z,39.30
2018-03-24T17:35:11.044Z,40.00
2018-03-24T17:37:38.514Z,39.60
2018-03-24T17:40:05.988Z,39.70
2018-03-24T17:42:33.479Z,39.90
2018-03-24T17:45:00.968Z,40.00
2018-03-24T17:47:29.207Z,40.40
2018-03-24T17:49:56.692Z,40.30
2018-03-24T17:52:24.156Z,40.50
2018-03-24T17:54:51.628Z,40.60
2018-03-24T17:57:19.096Z,40.80
2018-03-24T17:59:46.577Z,41.00
2018-03-24T18:02:14.046Z,41.10
2018-03-24T18:04:41.535Z,41.20
2018-03-24T18:07:09.736Z,41.40
2018-03-24T18:09:38.239Z,41.70
2018-03-24T18:12:05.817Z,41.90
2018-03-24T18:14:34.309Z,42.10
2018-03-24T18:17:01.788Z,42.20
2018-03-24T18:19:29.314Z,42.40
2018-03-24T18:21:56.827Z,42.40
2018-03-24T18:24:25.787Z,42.70
2018-03-24T18:26:53.380Z,42.70
2018-03-24T18:29:20.941Z,43.00
2018-03-24T18:31:48.540Z,43.10
2018-03-24T18:34:16.053Z,43.30
2018-03-24T18:36:43.630Z,44.40
2018-03-24T18:39:11.213Z,44.40
2018-03-24T18:41:38.710Z,44.40
2018-03-24T18:44:06.261Z,44.60
2018-03-24T18:46:33.773Z,44.90
2018-03-24T18:49:01.287Z,45.10
2018-03-24T18:51:28.925Z,45.30
2018-03-24T18:53:56.481Z,45.50
2018-03-24T18:56:24.069Z,45.70
2018-03-24T18:58:51.724Z,45.90
2018-03-24T19:01:19.246Z,46.00
2018-03-24T19:03:46.752Z,46.00
2018-03-24T19:06:14.308Z,46.20
2018-03-24T19:08:42.649Z,46.50
2018-03-24T19:11:10.195Z,46.40
2018-03-24T19:13:37.750Z,46.70
2018-03-24T19:16:05.248Z,46.70
2018-03-24T19:18:32.846Z,46.80
2018-03-24T19:21:00.426Z,47.00
2018-03-24T19:23:28.732Z,47.10
2018-03-24T19:25:56.273Z,47.30
2018-03-24T19:28:23.810Z,47.60
2018-03-24T19:30:51.352Z,47.80
2018-03-24T19:33:18.880Z,48.00
2018-03-24T19:35:46.400Z,48.10
2018-03-24T19:38:13.979Z,48.30
2018-03-24T19:40:42.288Z,48.50
2018-03-24T19:43:09.835Z,48.60
2018-03-24T19:45:37.353Z,48.80
2018-03-24T19:48:04.965Z,48.90
2018-03-24T19:50:32.670Z,48.90
2018-03-24T19:53:00.237Z,49.00
2018-03-24T19:55:27.748Z,49.10
2018-03-24T19:57:55.259Z,49.20
2018-03-24T20:00:22.824Z,49.30
2018-03-24T20:02:50.313Z,49.40
2018-03-24T20:05:17.840Z,49.40
2018-03-24T20:07:45.407Z,49.50
2018-03-24T20:10:12.943Z,49.70
2018-03-24T20:12:40.481Z,49.90
2018-03-24T20:15:08.091Z,49.80
2018-03-24T20:17:35.621Z,49.90
2018-03-24T20:20:04.030Z,50.00
2018-03-24T20:22:31.568Z,50.00
2018-03-24T20:24:59.123Z,50.00
2018-03-24T20:27:26.710Z,50.10
2018-03-24T20:29:54.250Z,50.30
2018-03-24T20:32:21.751Z,50.40
2018-03-24T20:34:50.180Z,50.60
2018-03-24T20:37:17.692Z,50.70
2018-03-24T20:39:45.248Z,50.80
2018-03-24T20:42:12.827Z,50.90
2018-03-24T20:44:40.368Z,51.00
2018-03-24T20:47:07.871Z,51.00
2018-03-24T20:49:35.491Z,51.10
2018-03-24T20:52:02.983Z,51.20
2018-03-24T20:54:30.591Z,51.30
2018-03-24T20:56:58.115Z,51.30
2018-03-24T20:59:25.692Z,51.50
2018-03-24T21:01:53.253Z,51.50
2018-03-24T21:04:20.751Z,51.40
2018-03-24T21:06:48.293Z,51.60
2018-03-24T21:09:15.906Z,51.70
2018-03-24T21:11:43.539Z,51.80
2018-03-24T21:14:11.080Z,51.90
2018-03-24T21:16:39.396Z,52.20
2018-03-24T21:19:06.909Z,52.10
2018-03-24T21:21:35.254Z,52.10
2018-03-24T21:24:02.811Z,52.30
2018-03-24T21:26:30.416Z,52.30
2018-03-24T21:28:57.948Z,52.40
2018-03-24T21:31:25.553Z,52.40
2018-03-24T21:33:53.104Z,52.40
2018-03-24T21:36:20.620Z,52.50
2018-03-24T21:38:48.227Z,52.80
2018-03-24T21:41:15.788Z,53.00
2018-03-24T21:43:43.294Z,53.20
2018-03-24T21:46:11.534Z,53.20
2018-03-24T21:48:39.178Z,53.20
2018-03-24T21:51:07.479Z,53.40
2018-03-24T21:53:35.090Z,53.30
2018-03-24T21:56:02.581Z,53.50
2018-03-24T21:58:30.100Z,53.40
2018-03-24T22:00:57.641Z,53.50
2018-03-24T22:03:25.238Z,53.60
2018-03-24T22:05:52.848Z,53.60
2018-03-24T22:08:20.408Z,53.60
2018-03-24T22:10:48.023Z,53.70
2018-03-24T22:13:15.583Z,53.80
2018-03-24T22:15:43.148Z,53.70
2018-03-24T22:18:10.698Z,53.80
2018-03-24T22:20:38.221Z,53.90
2018-03-24T22:23:05.816Z,53.90
2018-03-24T22:25:34.150Z,54.00
2018-03-24T22:28:01.676Z,54.00
2018-03-24T22:30:29.185Z,54.00
2018-03-24T22:32:56.712Z,54.00
2018-03-24T22:35:24.218Z,54.20
2018-03-24T22:37:51.871Z,54.10
2018-03-24T22:40:19.402Z,54.20
2018-03-24T22:42:47.009Z,54.30
2018-03-24T22:45:14.526Z,54.30
2018-03-24T22:47:42.094Z,54.30
2018-03-24T22:50:09.603Z,54.40
2018-03-24T22:52:37.103Z,54.40
2018-03-24T22:55:04.678Z,54.50
2018-03-24T22:57:32.177Z,54.50
2018-03-24T22:59:59.762Z,54.60
2018-03-24T23:02:27.287Z,54.70
2018-03-24T23:04:54.906Z,54.70
2018-03-24T23:07:22.552Z,54.70
2018-03-24T23:09:50.092Z,54.70
2018-03-24T23:12:17.606Z,54.70
2018-03-24T23:14:45.160Z,54.70
2018-03-24T23:17:12.660Z,54.40
2018-03-24T23:19:40.330Z,54.60
2018-03-24T23:22:07.910Z,54.70
2018-03-24T23:24:35.493Z,54.80
2018-03-24T23:27:03.816Z,54.90
2018-03-24T23:29:31.374Z,54.90
2018-03-24T23:31:58.909Z,54.90
2018-03-24T23:34:26.512Z,55.00
2018-03-24T23:36:54.069Z,55.00
2018-03-24T23:39:21.704Z,55.10
2018-03-24T23:41:49.230Z,55.20
2018-03-24T23:44:16.748Z,55.30
2018-03-24T23:46:44.362Z,55.30
2018-03-24T23:49:11.919Z,55.30
2018-03-24T23:51:40.291Z,55.90
2018-03-24T23:54:07.755Z,55.50
2018-03-24T23:56:35.309Z,55.60
2018-03-24T23:59:02.870Z,55.50
